sensor_id;sensor_type;location;lat;lon;timestamp;temperature;humidity
15364;DHT22;7781;49.690;6.472;2023-06-14T00:02:11;12.80;99.90
15364;DHT22;7781;49.690;6.472;2023-06-14T00:04:39;12.80;99.90
15364;DHT22;7781;49.690;6.472;2023-06-14T00:07:09;12.80;99.90
15364;DHT22;7781;49.690;6.472;2023-06-14T00:09:40;12.70;99.90
15364;DHT22;7781;49.690;6.472;2023-06-14T00:12:08;12.70;99.90
15364;DHT22;7781;49.690;6.472;2023-06-14T00:14:37;12.70;99.90
15364;DHT22;7781;49.690;6.472;2023-06-14T00:17:05;12.60;99.90
15364;DHT22;7781;49.690;6.472;2023-06-14T00:19:36;12.60;99.90
15364;DHT22;7781;49.690;6.472;2023-06-14T00:22:05;12.60;99.90
15364;DHT22;7781;49.690;6.472;2023-06-14T00:24:34;12.60;99.90
15364;DHT22;7781;49.690;6.472;2023-06-14T00:27:03;12.60;99.90
15364;DHT22;7781;49.690;6.472;2023-06-14T00:29:33;12.60;99.90
15364;DHT22;7781;49.690;6.472;2023-06-14T00:32:04;12.50;99.90
15364;DHT22;7781;49.690;6.472;2023-06-14T00:34:34;12.50;99.90
15364;DHT22;7781;49.690;6.472;2023-06-14T00:37:04;12.40;99.90
15364;DHT22;7781;49.690;6.472;2023-06-14T00:39:34;12.40;99.90
15364;DHT22;7781;49.690;6.472;2023-06-14T00:42:04;12.40;99.90
15364;DHT22;7781;49.690;6.472;2023-06-14T00:44:34;12.40;99.90
15364;DHT22;7781;49.690;6.472;2023-06-14T00:47:03;12.40;99.90
15364;DHT22;7781;49.690;6.472;2023-06-14T00:49:32;12.40;99.90
15364;DHT22;7781;49.690;6.472;2023-06-14T00:52:01;12.30;99.90
15364;DHT22;7781;49.690;6.472;2023-06-14T00:54:31;12.30;99.90
15364;DHT22;7781;49.690;6.472;2023-06-14T00:57:00;12.20;99.90
15364;DHT22;7781;49.690;6.472;2023-06-14T00:59:30;12.20;99.90
15364;DHT22;7781;49.690;6.472;2023-06-14T01:02:00;12.10;99.90
15364;DHT22;7781;49.690;6.472;2023-06-14T01:04:29;12.10;99.90
15364;DHT22;7781;49.690;6.472;2023-06-14T01:07:04;12.10;99.90
15364;DHT22;7781;49.690;6.472;2023-06-14T01:09:50;12.00;99.90
15364;DHT22;7781;49.690;6.472;2023-06-14T01:12:31;12.00;99.90
15364;DHT22;7781;49.690;6.472;2023-06-14T01:15:01;12.00;99.90
15364;DHT22;7781;49.690;6.472;2023-06-14T01:17:30;12.00;99.90
15364;DHT22;7781;49.690;6.472;2023-06-14T01:20:02;12.00;99.90
15364;DHT22;7781;49.690;6.472;2023-06-14T01:22:34;12.00;99.90
15364;DHT22;7781;49.690;6.472;2023-06-14T01:25:07;12.10;99.90
15364;DHT22;7781;49.690;6.472;2023-06-14T01:27:35;12.10;99.90
15364;DHT22;7781;49.690;6.472;2023-06-14T01:30:06;12.10;99.90
15364;DHT22;7781;49.690;6.472;2023-06-14T01:32:35;12.10;99.90
15364;DHT22;7781;49.690;6.472;2023-06-14T01:35:05;12.10;99.90
15364;DHT22;7781;49.690;6.472;2023-06-14T01:37:34;12.10;99.90
15364;DHT22;7781;49.690;6.472;2023-06-14T01:40:07;12.10;99.90
15364;DHT22;7781;49.690;6.472;2023-06-14T01:42:38;12.10;99.90
15364;DHT22;7781;49.690;6.472;2023-06-14T01:45:10;12.00;99.90
15364;DHT22;7781;49.690;6.472;2023-06-14T01:47:40;12.00;99.90
15364;DHT22;7781;49.690;6.472;2023-06-14T01:50:09;11.90;99.90
15364;DHT22;7781;49.690;6.472;2023-06-14T01:52:38;11.80;99.90
15364;DHT22;7781;49.690;6.472;2023-06-14T01:55:09;11.70;99.90
15364;DHT22;7781;49.690;6.472;2023-06-14T01:57:39;11.60;99.90
15364;DHT22;7781;49.690;6.472;2023-06-14T02:00:08;11.50;99.90
15364;DHT22;7781;49.690;6.472;2023-06-14T02:02:40;11.40;99.90
15364;DHT22;7781;49.690;6.472;2023-06-14T02:05:09;11.30;99.90
15364;DHT22;7781;49.690;6.472;2023-06-14T02:07:41;11.30;99.90
15364;DHT22;7781;49.690;6.472;2023-06-14T02:10:10;11.40;99.90
15364;DHT22;7781;49.690;6.472;2023-06-14T02:12:39;11.30;99.90
15364;DHT22;7781;49.690;6.472;2023-06-14T02:15:10;11.30;99.90
15364;DHT22;7781;49.690;6.472;2023-06-14T02:17:44;11.20;99.90
15364;DHT22;7781;49.690;6.472;2023-06-14T02:20:17;11.20;99.90
15364;DHT22;7781;49.690;6.472;2023-06-14T02:22:45;11.20;99.90
15364;DHT22;7781;49.690;6.472;2023-06-14T02:25:16;11.20;99.90
15364;DHT22;7781;49.690;6.472;2023-06-14T02:27:45;11.10;99.90
15364;DHT22;7781;49.690;6.472;2023-06-14T02:30:14;11.10;99.90
15364;DHT22;7781;49.690;6.472;2023-06-14T02:32:45;11.10;99.90
15364;DHT22;7781;49.690;6.472;2023-06-14T02:35:14;11.20;99.90
15364;DHT22;7781;49.690;6.472;2023-06-14T02:37:43;11.10;99.90
15364;DHT22;7781;49.690;6.472;2023-06-14T02:40:16;11.10;99.90
15364;DHT22;7781;49.690;6.472;2023-06-14T02:42:48;11.10;99.90
15364;DHT22;7781;49.690;6.472;2023-06-14T02:45:18;11.00;99.90
15364;DHT22;7781;49.690;6.472;2023-06-14T02:47:48;11.00;99.90
15364;DHT22;7781;49.690;6.472;2023-06-14T02:50:18;10.90;99.90
15364;DHT22;7781;49.690;6.472;2023-06-14T02:52:49;10.90;99.90
15364;DHT22;7781;49.690;6.472;2023-06-14T02:55:21;10.80;99.90
15364;DHT22;7781;49.690;6.472;2023-06-14T02:57:51;10.80;99.90
15364;DHT22;7781;49.690;6.472;2023-06-14T03:00:20;10.80;99.90
15364;DHT22;7781;49.690;6.472;2023-06-14T03:02:51;10.70;99.90
15364;DHT22;7781;49.690;6.472;2023-06-14T03:05:24;10.70;99.90
15364;DHT22;7781;49.690;6.472;2023-06-14T03:07:55;10.60;99.90
15364;DHT22;7781;49.690;6.472;2023-06-14T03:10:27;10.70;99.90
15364;DHT22;7781;49.690;6.472;2023-06-14T03:12:59;10.60;99.90
15364;DHT22;7781;49.690;6.472;2023-06-14T03:15:28;10.60;99.90
15364;DHT22;7781;49.690;6.472;2023-06-14T03:17:59;10.60;99.90
15364;DHT22;7781;49.690;6.472;2023-06-14T03:20:28;10.50;99.90
15364;DHT22;7781;49.690;6.472;2023-06-14T03:23:00;10.50;99.90
15364;DHT22;7781;49.690;6.472;2023-06-14T03:25:30;10.40;99.90
15364;DHT22;7781;49.690;6.472;2023-06-14T03:28:00;10.40;99.90
15364;DHT22;7781;49.690;6.472;2023-06-14T03:30:30;10.30;99.90
15364;DHT22;7781;49.690;6.472;2023-06-14T03:33:01;10.30;99.90
15364;DHT22;7781;49.690;6.472;2023-06-14T03:35:30;10.30;99.90
15364;DHT22;7781;49.690;6.472;2023-06-14T03:37:59;10.30;99.90
15364;DHT22;7781;49.690;6.472;2023-06-14T03:40:27;10.30;99.90
15364;DHT22;7781;49.690;6.472;2023-06-14T03:43:02;10.30;99.90
15364;DHT22;7781;49.690;6.472;2023-06-14T03:45:32;10.30;99.90
15364;DHT22;7781;49.690;6.472;2023-06-14T03:48:02;10.30;99.90
15364;DHT22;7781;49.690;6.472;2023-06-14T03:50:34;10.30;99.90
15364;DHT22;7781;49.690;6.472;2023-06-14T03:53:06;10.30;99.90
15364;DHT22;7781;49.690;6.472;2023-06-14T03:55:39;10.30;99.90
15364;DHT22;7781;49.690;6.472;2023-06-14T03:58:13;10.30;99.90
15364;DHT22;7781;49.690;6.472;2023-06-14T04:00:41;10.30;99.90
15364;DHT22;7781;49.690;6.472;2023-06-14T04:03:10;10.30;99.90
15364;DHT22;7781;49.690;6.472;2023-06-14T04:05:43;10.30;99.90
15364;DHT22;7781;49.690;6.472;2023-06-14T04:08:12;10.30;99.90
15364;DHT22;7781;49.690;6.472;2023-06-14T04:10:42;10.40;99.90
15364;DHT22;7781;49.690;6.472;2023-06-14T04:13:12;10.40;99.90
15364;DHT22;7781;49.690;6.472;2023-06-14T04:15:42;10.40;99.90
15364;DHT22;7781;49.690;6.472;2023-06-14T04:18:18;10.40;99.90
15364;DHT22;7781;49.690;6.472;2023-06-14T04:20:50;10.50;99.90
15364;DHT22;7781;49.690;6.472;2023-06-14T04:23:20;10.50;99.90
15364;DHT22;7781;49.690;6.472;2023-06-14T04:25:49;10.60;99.90
15364;DHT22;7781;49.690;6.472;2023-06-14T04:28:23;10.60;99.90
15364;DHT22;7781;49.690;6.472;2023-06-14T04:30:53;10.70;99.90
15364;DHT22;7781;49.690;6.472;2023-06-14T04:33:25;10.70;99.90
15364;DHT22;7781;49.690;6.472;2023-06-14T04:35:54;10.80;99.90
15364;DHT22;7781;49.690;6.472;2023-06-14T04:38:24;10.90;99.90
15364;DHT22;7781;49.690;6.472;2023-06-14T04:40:57;10.90;99.90
15364;DHT22;7781;49.690;6.472;2023-06-14T04:43:31;11.00;99.90
15364;DHT22;7781;49.690;6.472;2023-06-14T04:46:06;11.10;99.90
15364;DHT22;7781;49.690;6.472;2023-06-14T04:48:39;11.10;99.90
15364;DHT22;7781;49.690;6.472;2023-06-14T04:51:10;11.20;99.90
15364;DHT22;7781;49.690;6.472;2023-06-14T04:53:42;11.30;99.90
15364;DHT22;7781;49.690;6.472;2023-06-14T04:56:12;11.40;99.90
15364;DHT22;7781;49.690;6.472;2023-06-14T04:58:46;11.50;99.90
15364;DHT22;7781;49.690;6.472;2023-06-14T05:01:19;11.60;99.90
15364;DHT22;7781;49.690;6.472;2023-06-14T05:03:49;11.70;99.90
15364;DHT22;7781;49.690;6.472;2023-06-14T05:06:20;11.80;99.90
15364;DHT22;7781;49.690;6.472;2023-06-14T05:08:49;11.90;99.90
15364;DHT22;7781;49.690;6.472;2023-06-14T05:11:24;12.00;99.90
15364;DHT22;7781;49.690;6.472;2023-06-14T05:13:56;12.10;99.90
15364;DHT22;7781;49.690;6.472;2023-06-14T05:16:28;12.20;99.90
15364;DHT22;7781;49.690;6.472;2023-06-14T05:19:25;12.40;99.90
15364;DHT22;7781;49.690;6.472;2023-06-14T05:21:53;12.60;99.90
15364;DHT22;7781;49.690;6.472;2023-06-14T05:24:25;12.70;99.90
15364;DHT22;7781;49.690;6.472;2023-06-14T05:26:57;12.80;99.90
15364;DHT22;7781;49.690;6.472;2023-06-14T05:29:29;13.00;99.90
15364;DHT22;7781;49.690;6.472;2023-06-14T05:31:58;13.20;99.90
15364;DHT22;7781;49.690;6.472;2023-06-14T05:34:29;13.40;99.90
15364;DHT22;7781;49.690;6.472;2023-06-14T05:36:59;13.50;99.90
15364;DHT22;7781;49.690;6.472;2023-06-14T05:39:29;13.70;99.90
15364;DHT22;7781;49.690;6.472;2023-06-14T05:41:59;13.80;99.90
15364;DHT22;7781;49.690;6.472;2023-06-14T05:44:29;14.00;99.90
15364;DHT22;7781;49.690;6.472;2023-06-14T05:46:59;14.10;99.90
15364;DHT22;7781;49.690;6.472;2023-06-14T05:49:31;14.30;99.90
15364;DHT22;7781;49.690;6.472;2023-06-14T05:51:59;14.40;99.90
15364;DHT22;7781;49.690;6.472;2023-06-14T05:54:30;14.50;99.90
15364;DHT22;7781;49.690;6.472;2023-06-14T05:57:03;14.60;99.90
15364;DHT22;7781;49.690;6.472;2023-06-14T05:59:38;14.70;99.90
15364;DHT22;7781;49.690;6.472;2023-06-14T06:02:07;14.90;99.90
15364;DHT22;7781;49.690;6.472;2023-06-14T06:04:40;15.00;99.90
15364;DHT22;7781;49.690;6.472;2023-06-14T06:07:10;15.10;99.90
15364;DHT22;7781;49.690;6.472;2023-06-14T06:09:40;15.20;99.90
15364;DHT22;7781;49.690;6.472;2023-06-14T06:12:15;15.30;99.90
15364;DHT22;7781;49.690;6.472;2023-06-14T06:14:45;15.50;99.90
15364;DHT22;7781;49.690;6.472;2023-06-14T06:17:16;15.50;99.90
15364;DHT22;7781;49.690;6.472;2023-06-14T06:19:47;15.60;99.90
15364;DHT22;7781;49.690;6.472;2023-06-14T06:22:20;15.80;99.90
15364;DHT22;7781;49.690;6.472;2023-06-14T06:24:50;15.90;99.90
15364;DHT22;7781;49.690;6.472;2023-06-14T06:27:29;16.00;99.90
15364;DHT22;7781;49.690;6.472;2023-06-14T06:30:02;16.00;99.90
15364;DHT22;7781;49.690;6.472;2023-06-14T06:32:32;16.20;99.90
15364;DHT22;7781;49.690;6.472;2023-06-14T06:35:05;16.30;99.90
15364;DHT22;7781;49.690;6.472;2023-06-14T06:37:37;16.40;99.90
15364;DHT22;7781;49.690;6.472;2023-06-14T06:40:11;16.50;99.90
15364;DHT22;7781;49.690;6.472;2023-06-14T06:42:40;16.70;99.90
15364;DHT22;7781;49.690;6.472;2023-06-14T06:45:14;16.80;99.90
15364;DHT22;7781;49.690;6.472;2023-06-14T06:47:45;16.90;99.90
15364;DHT22;7781;49.690;6.472;2023-06-14T06:50:13;17.00;99.90
15364;DHT22;7781;49.690;6.472;2023-06-14T06:52:43;17.20;99.90
15364;DHT22;7781;49.690;6.472;2023-06-14T06:55:13;17.30;99.90
15364;DHT22;7781;49.690;6.472;2023-06-14T06:57:42;17.50;99.90
15364;DHT22;7781;49.690;6.472;2023-06-14T07:00:11;17.60;99.90
15364;DHT22;7781;49.690;6.472;2023-06-14T07:02:42;17.70;99.90
15364;DHT22;7781;49.690;6.472;2023-06-14T07:05:10;17.90;99.90
15364;DHT22;7781;49.690;6.472;2023-06-14T07:07:39;18.00;99.90
15364;DHT22;7781;49.690;6.472;2023-06-14T07:10:08;18.10;99.90
15364;DHT22;7781;49.690;6.472;2023-06-14T07:12:37;18.20;99.90
15364;DHT22;7781;49.690;6.472;2023-06-14T07:15:08;18.20;99.90
15364;DHT22;7781;49.690;6.472;2023-06-14T07:17:37;18.30;99.90
15364;DHT22;7781;49.690;6.472;2023-06-14T07:20:12;18.50;99.90
15364;DHT22;7781;49.690;6.472;2023-06-14T07:22:41;18.60;99.90
15364;DHT22;7781;49.690;6.472;2023-06-14T07:25:10;18.70;99.90
15364;DHT22;7781;49.690;6.472;2023-06-14T07:27:42;18.80;99.90
15364;DHT22;7781;49.690;6.472;2023-06-14T07:30:12;18.80;99.90
15364;DHT22;7781;49.690;6.472;2023-06-14T07:32:43;18.90;99.90
15364;DHT22;7781;49.690;6.472;2023-06-14T07:35:15;19.00;99.90
15364;DHT22;7781;49.690;6.472;2023-06-14T07:37:44;19.10;99.90
15364;DHT22;7781;49.690;6.472;2023-06-14T07:40:15;19.20;99.90
15364;DHT22;7781;49.690;6.472;2023-06-14T07:42:43;19.30;99.90
15364;DHT22;7781;49.690;6.472;2023-06-14T07:45:14;19.40;99.90
15364;DHT22;7781;49.690;6.472;2023-06-14T07:47:43;19.50;99.90
15364;DHT22;7781;49.690;6.472;2023-06-14T07:50:15;19.60;99.90
15364;DHT22;7781;49.690;6.472;2023-06-14T07:52:45;19.70;99.90
15364;DHT22;7781;49.690;6.472;2023-06-14T07:55:14;19.70;99.90
15364;DHT22;7781;49.690;6.472;2023-06-14T07:57:43;19.80;99.90
15364;DHT22;7781;49.690;6.472;2023-06-14T08:00:14;19.90;99.90
15364;DHT22;7781;49.690;6.472;2023-06-14T08:02:45;20.00;99.90
15364;DHT22;7781;49.690;6.472;2023-06-14T08:05:15;20.10;99.90
15364;DHT22;7781;49.690;6.472;2023-06-14T08:07:44;20.10;99.90
15364;DHT22;7781;49.690;6.472;2023-06-14T08:10:12;20.20;99.90
15364;DHT22;7781;49.690;6.472;2023-06-14T08:12:41;20.40;99.90
15364;DHT22;7781;49.690;6.472;2023-06-14T08:15:11;20.50;99.90
15364;DHT22;7781;49.690;6.472;2023-06-14T08:17:42;20.60;99.90
15364;DHT22;7781;49.690;6.472;2023-06-14T08:20:15;20.70;99.90
15364;DHT22;7781;49.690;6.472;2023-06-14T08:22:44;20.80;99.90
15364;DHT22;7781;49.690;6.472;2023-06-14T08:25:15;20.80;99.90
15364;DHT22;7781;49.690;6.472;2023-06-14T08:27:44;21.00;99.90
15364;DHT22;7781;49.690;6.472;2023-06-14T08:30:13;21.00;99.90
15364;DHT22;7781;49.690;6.472;2023-06-14T08:32:42;21.10;99.90
15364;DHT22;7781;49.690;6.472;2023-06-14T08:35:11;21.20;99.90
15364;DHT22;7781;49.690;6.472;2023-06-14T08:37:42;21.30;99.90
15364;DHT22;7781;49.690;6.472;2023-06-14T08:40:21;21.40;99.90
15364;DHT22;7781;49.690;6.472;2023-06-14T08:42:52;21.40;99.90
15364;DHT22;7781;49.690;6.472;2023-06-14T08:45:23;21.50;99.90
15364;DHT22;7781;49.690;6.472;2023-06-14T08:47:56;21.60;99.90
15364;DHT22;7781;49.690;6.472;2023-06-14T08:50:27;21.70;99.90
15364;DHT22;7781;49.690;6.472;2023-06-14T08:53:02;21.80;99.90
15364;DHT22;7781;49.690;6.472;2023-06-14T08:55:32;21.90;99.90
15364;DHT22;7781;49.690;6.472;2023-06-14T08:58:04;22.00;99.90
15364;DHT22;7781;49.690;6.472;2023-06-14T09:00:34;22.10;99.90
15364;DHT22;7781;49.690;6.472;2023-06-14T09:03:06;22.20;99.90
15364;DHT22;7781;49.690;6.472;2023-06-14T09:05:41;22.30;99.90
15364;DHT22;7781;49.690;6.472;2023-06-14T09:08:14;22.50;99.90
15364;DHT22;7781;49.690;6.472;2023-06-14T09:10:46;22.60;99.90
15364;DHT22;7781;49.690;6.472;2023-06-14T09:13:17;22.70;99.90
15364;DHT22;7781;49.690;6.472;2023-06-14T09:15:46;22.80;99.90
15364;DHT22;7781;49.690;6.472;2023-06-14T09:18:16;22.90;99.90
15364;DHT22;7781;49.690;6.472;2023-06-14T09:20:47;22.90;99.90
15364;DHT22;7781;49.690;6.472;2023-06-14T09:23:21;22.90;99.90
15364;DHT22;7781;49.690;6.472;2023-06-14T09:25:50;23.00;99.90
15364;DHT22;7781;49.690;6.472;2023-06-14T09:28:19;23.00;99.90
15364;DHT22;7781;49.690;6.472;2023-06-14T09:30:50;23.20;99.90
15364;DHT22;7781;49.690;6.472;2023-06-14T09:33:19;23.30;99.90
15364;DHT22;7781;49.690;6.472;2023-06-14T09:35:51;23.30;99.90
15364;DHT22;7781;49.690;6.472;2023-06-14T09:38:25;23.50;99.90
15364;DHT22;7781;49.690;6.472;2023-06-14T09:40:57;23.60;99.90
15364;DHT22;7781;49.690;6.472;2023-06-14T09:43:26;23.50;99.90
15364;DHT22;7781;49.690;6.472;2023-06-14T09:45:55;23.70;99.90
15364;DHT22;7781;49.690;6.472;2023-06-14T09:48:24;23.70;99.90
15364;DHT22;7781;49.690;6.472;2023-06-14T09:50:55;23.90;99.90
15364;DHT22;7781;49.690;6.472;2023-06-14T09:53:29;24.00;99.90
15364;DHT22;7781;49.690;6.472;2023-06-14T09:55:59;24.20;99.90
15364;DHT22;7781;49.690;6.472;2023-06-14T09:58:28;24.30;99.90
15364;DHT22;7781;49.690;6.472;2023-06-14T10:00:59;24.30;99.90
15364;DHT22;7781;49.690;6.472;2023-06-14T10:03:31;24.40;99.90
15364;DHT22;7781;49.690;6.472;2023-06-14T10:06:22;24.50;99.90
15364;DHT22;7781;49.690;6.472;2023-06-14T10:08:57;24.50;99.90
15364;DHT22;7781;49.690;6.472;2023-06-14T10:11:27;24.50;99.90
15364;DHT22;7781;49.690;6.472;2023-06-14T10:13:58;24.50;99.90
15364;DHT22;7781;49.690;6.472;2023-06-14T10:16:30;24.50;99.90
15364;DHT22;7781;49.690;6.472;2023-06-14T10:19:04;24.60;99.90
15364;DHT22;7781;49.690;6.472;2023-06-14T10:21:43;24.70;99.90
15364;DHT22;7781;49.690;6.472;2023-06-14T10:24:18;24.80;99.90
15364;DHT22;7781;49.690;6.472;2023-06-14T10:26:53;24.90;99.90
15364;DHT22;7781;49.690;6.472;2023-06-14T10:29:26;24.90;99.90
15364;DHT22;7781;49.690;6.472;2023-06-14T10:32:00;25.10;99.90
15364;DHT22;7781;49.690;6.472;2023-06-14T10:34:31;25.30;99.90
15364;DHT22;7781;49.690;6.472;2023-06-14T10:37:02;25.40;99.90
15364;DHT22;7781;49.690;6.472;2023-06-14T10:39:38;25.60;99.90
15364;DHT22;7781;49.690;6.472;2023-06-14T10:42:08;25.70;99.90
15364;DHT22;7781;49.690;6.472;2023-06-14T10:44:40;26.00;99.90
15364;DHT22;7781;49.690;6.472;2023-06-14T10:47:11;26.20;99.90
15364;DHT22;7781;49.690;6.472;2023-06-14T10:49:51;26.50;99.90
15364;DHT22;7781;49.690;6.472;2023-06-14T10:52:25;26.80;99.90
15364;DHT22;7781;49.690;6.472;2023-06-14T10:54:59;27.10;99.90
15364;DHT22;7781;49.690;6.472;2023-06-14T10:57:28;27.20;99.90
15364;DHT22;7781;49.690;6.472;2023-06-14T11:00:15;27.30;99.90
15364;DHT22;7781;49.690;6.472;2023-06-14T11:03:03;27.60;99.90
15364;DHT22;7781;49.690;6.472;2023-06-14T11:05:48;27.90;99.90
15364;DHT22;7781;49.690;6.472;2023-06-14T11:08:45;28.30;99.90
15364;DHT22;7781;49.690;6.472;2023-06-14T11:11:22;28.50;99.90
15364;DHT22;7781;49.690;6.472;2023-06-14T11:13:51;28.50;99.90
15364;DHT22;7781;49.690;6.472;2023-06-14T11:16:20;28.60;99.90
15364;DHT22;7781;49.690;6.472;2023-06-14T11:18:51;28.70;99.90
15364;DHT22;7781;49.690;6.472;2023-06-14T11:21:19;28.90;99.90
15364;DHT22;7781;49.690;6.472;2023-06-14T11:23:50;29.10;99.90
15364;DHT22;7781;49.690;6.472;2023-06-14T11:26:27;29.10;99.90
15364;DHT22;7781;49.690;6.472;2023-06-14T11:28:57;29.00;99.90
15364;DHT22;7781;49.690;6.472;2023-06-14T11:31:27;29.00;99.90
15364;DHT22;7781;49.690;6.472;2023-06-14T11:33:57;29.00;99.90
15364;DHT22;7781;49.690;6.472;2023-06-14T11:36:28;29.00;99.90
15364;DHT22;7781;49.690;6.472;2023-06-14T11:38:59;28.90;99.90
15364;DHT22;7781;49.690;6.472;2023-06-14T11:41:36;28.40;99.90
15364;DHT22;7781;49.690;6.472;2023-06-14T11:44:07;28.40;99.90
15364;DHT22;7781;49.690;6.472;2023-06-14T11:46:36;28.70;99.90
15364;DHT22;7781;49.690;6.472;2023-06-14T11:49:06;28.90;99.90
15364;DHT22;7781;49.690;6.472;2023-06-14T11:51:37;28.60;99.90
15364;DHT22;7781;49.690;6.472;2023-06-14T11:54:06;28.70;99.90
15364;DHT22;7781;49.690;6.472;2023-06-14T11:56:37;29.00;99.90
15364;DHT22;7781;49.690;6.472;2023-06-14T11:59:06;29.40;99.90
15364;DHT22;7781;49.690;6.472;2023-06-14T12:01:38;29.90;99.90
15364;DHT22;7781;49.690;6.472;2023-06-14T12:04:07;30.20;99.90
15364;DHT22;7781;49.690;6.472;2023-06-14T12:06:35;30.50;99.90
15364;DHT22;7781;49.690;6.472;2023-06-14T12:09:08;30.60;99.90
15364;DHT22;7781;49.690;6.472;2023-06-14T12:11:42;30.80;99.90
15364;DHT22;7781;49.690;6.472;2023-06-14T12:14:12;30.60;99.90
15364;DHT22;7781;49.690;6.472;2023-06-14T12:16:40;30.60;99.90
15364;DHT22;7781;49.690;6.472;2023-06-14T12:19:13;30.70;99.90
15364;DHT22;7781;49.690;6.472;2023-06-14T12:21:45;30.80;99.90
15364;DHT22;7781;49.690;6.472;2023-06-14T12:24:16;30.90;99.90
15364;DHT22;7781;49.690;6.472;2023-06-14T12:26:46;31.30;99.90
15364;DHT22;7781;49.690;6.472;2023-06-14T12:29:16;31.30;99.90
15364;DHT22;7781;49.690;6.472;2023-06-14T12:31:47;31.60;99.90
15364;DHT22;7781;49.690;6.472;2023-06-14T12:34:18;32.00;99.90
15364;DHT22;7781;49.690;6.472;2023-06-14T12:36:46;32.40;99.90
15364;DHT22;7781;49.690;6.472;2023-06-14T12:39:16;32.70;99.90
15364;DHT22;7781;49.690;6.472;2023-06-14T12:41:48;32.80;99.90
15364;DHT22;7781;49.690;6.472;2023-06-14T12:44:16;32.80;99.90
15364;DHT22;7781;49.690;6.472;2023-06-14T12:46:46;32.60;99.90
15364;DHT22;7781;49.690;6.472;2023-06-14T12:49:15;32.70;99.90
15364;DHT22;7781;49.690;6.472;2023-06-14T12:51:47;32.80;1.00
15364;DHT22;7781;49.690;6.472;2023-06-14T12:54:16;33.20;1.00
15364;DHT22;7781;49.690;6.472;2023-06-14T12:57:07;33.40;1.00
15364;DHT22;7781;49.690;6.472;2023-06-14T12:59:37;33.30;1.00
15364;DHT22;7781;49.690;6.472;2023-06-14T13:02:13;33.30;1.00
15364;DHT22;7781;49.690;6.472;2023-06-14T13:04:42;33.40;1.00
15364;DHT22;7781;49.690;6.472;2023-06-14T13:07:10;33.50;1.00
15364;DHT22;7781;49.690;6.472;2023-06-14T13:09:39;33.80;1.00
15364;DHT22;7781;49.690;6.472;2023-06-14T13:12:12;33.70;1.00
15364;DHT22;7781;49.690;6.472;2023-06-14T13:14:42;34.20;1.00
15364;DHT22;7781;49.690;6.472;2023-06-14T13:17:10;34.40;1.00
15364;DHT22;7781;49.690;6.472;2023-06-14T13:19:39;34.70;1.00
15364;DHT22;7781;49.690;6.472;2023-06-14T13:22:09;34.70;1.00
15364;DHT22;7781;49.690;6.472;2023-06-14T13:24:38;34.90;1.00
15364;DHT22;7781;49.690;6.472;2023-06-14T13:27:07;34.80;1.00
15364;DHT22;7781;49.690;6.472;2023-06-14T13:29:37;34.70;1.00
15364;DHT22;7781;49.690;6.472;2023-06-14T13:32:07;34.70;1.00
15364;DHT22;7781;49.690;6.472;2023-06-14T13:34:35;34.40;1.00
15364;DHT22;7781;49.690;6.472;2023-06-14T13:37:04;34.30;1.00
15364;DHT22;7781;49.690;6.472;2023-06-14T13:39:35;34.40;1.00
15364;DHT22;7781;49.690;6.472;2023-06-14T13:42:05;34.50;1.00
15364;DHT22;7781;49.690;6.472;2023-06-14T13:44:37;34.40;1.00
15364;DHT22;7781;49.690;6.472;2023-06-14T13:47:06;34.70;1.00
15364;DHT22;7781;49.690;6.472;2023-06-14T13:49:35;34.90;1.00
15364;DHT22;7781;49.690;6.472;2023-06-14T13:52:04;35.00;1.00
15364;DHT22;7781;49.690;6.472;2023-06-14T13:54:33;35.10;1.00
15364;DHT22;7781;49.690;6.472;2023-06-14T13:57:03;35.30;1.00
15364;DHT22;7781;49.690;6.472;2023-06-14T13:59:32;35.40;1.00
15364;DHT22;7781;49.690;6.472;2023-06-14T14:02:02;36.00;1.00
15364;DHT22;7781;49.690;6.472;2023-06-14T14:04:30;35.80;1.00
15364;DHT22;7781;49.690;6.472;2023-06-14T14:06:59;35.60;1.00
15364;DHT22;7781;49.690;6.472;2023-06-14T14:09:28;35.30;1.00
15364;DHT22;7781;49.690;6.472;2023-06-14T14:11:58;35.70;1.00
15364;DHT22;7781;49.690;6.472;2023-06-14T14:14:27;35.70;1.00
15364;DHT22;7781;49.690;6.472;2023-06-14T14:16:56;35.70;1.00
15364;DHT22;7781;49.690;6.472;2023-06-14T14:19:26;36.00;1.00
15364;DHT22;7781;49.690;6.472;2023-06-14T14:21:55;36.20;1.00
15364;DHT22;7781;49.690;6.472;2023-06-14T14:24:24;36.30;1.00
15364;DHT22;7781;49.690;6.472;2023-06-14T14:26:52;36.60;1.00
15364;DHT22;7781;49.690;6.472;2023-06-14T14:29:23;36.80;1.00
15364;DHT22;7781;49.690;6.472;2023-06-14T14:31:53;37.00;1.00
15364;DHT22;7781;49.690;6.472;2023-06-14T14:34:22;37.10;11.60
15364;DHT22;7781;49.690;6.472;2023-06-14T14:36:53;36.90;1.00
15364;DHT22;7781;49.690;6.472;2023-06-14T14:39:22;36.90;1.00
15364;DHT22;7781;49.690;6.472;2023-06-14T14:41:50;37.00;1.00
15364;DHT22;7781;49.690;6.472;2023-06-14T14:44:22;36.90;99.90
15364;DHT22;7781;49.690;6.472;2023-06-14T14:46:50;36.60;1.00
15364;DHT22;7781;49.690;6.472;2023-06-14T14:49:19;36.40;1.00
15364;DHT22;7781;49.690;6.472;2023-06-14T14:51:47;36.40;1.00
15364;DHT22;7781;49.690;6.472;2023-06-14T14:54:17;36.70;99.90
15364;DHT22;7781;49.690;6.472;2023-06-14T14:56:46;36.50;48.60
15364;DHT22;7781;49.690;6.472;2023-06-14T14:59:15;36.20;41.20
15364;DHT22;7781;49.690;6.472;2023-06-14T15:01:46;36.50;99.90
15364;DHT22;7781;49.690;6.472;2023-06-14T15:04:14;36.60;1.00
15364;DHT22;7781;49.690;6.472;2023-06-14T15:06:45;36.00;1.00
15364;DHT22;7781;49.690;6.472;2023-06-14T15:09:14;36.30;22.80
15364;DHT22;7781;49.690;6.472;2023-06-14T15:11:45;36.20;99.90
15364;DHT22;7781;49.690;6.472;2023-06-14T15:14:14;35.90;99.90
15364;DHT22;7781;49.690;6.472;2023-06-14T15:16:46;35.70;99.90
15364;DHT22;7781;49.690;6.472;2023-06-14T15:19:14;35.50;1.00
15364;DHT22;7781;49.690;6.472;2023-06-14T15:21:43;35.30;27.30
15364;DHT22;7781;49.690;6.472;2023-06-14T15:24:12;35.60;1.00
15364;DHT22;7781;49.690;6.472;2023-06-14T15:26:41;35.70;1.00
15364;DHT22;7781;49.690;6.472;2023-06-14T15:29:13;35.70;1.00
15364;DHT22;7781;49.690;6.472;2023-06-14T15:31:43;35.80;1.00
15364;DHT22;7781;49.690;6.472;2023-06-14T15:34:12;35.50;1.00
15364;DHT22;7781;49.690;6.472;2023-06-14T15:36:40;34.80;1.00
15364;DHT22;7781;49.690;6.472;2023-06-14T15:39:09;34.70;1.00
15364;DHT22;7781;49.690;6.472;2023-06-14T15:41:38;34.50;1.00
15364;DHT22;7781;49.690;6.472;2023-06-14T15:44:08;34.40;1.00
15364;DHT22;7781;49.690;6.472;2023-06-14T15:46:40;34.40;99.90
15364;DHT22;7781;49.690;6.472;2023-06-14T15:49:09;34.10;99.90
15364;DHT22;7781;49.690;6.472;2023-06-14T15:51:41;33.80;1.00
15364;DHT22;7781;49.690;6.472;2023-06-14T15:54:10;33.40;1.00
15364;DHT22;7781;49.690;6.472;2023-06-14T15:56:38;33.20;1.00
15364;DHT22;7781;49.690;6.472;2023-06-14T15:59:07;32.70;1.00
15364;DHT22;7781;49.690;6.472;2023-06-14T16:01:39;32.40;1.00
15364;DHT22;7781;49.690;6.472;2023-06-14T16:04:08;32.20;1.00
15364;DHT22;7781;49.690;6.472;2023-06-14T16:06:37;32.00;1.00
15364;DHT22;7781;49.690;6.472;2023-06-14T16:09:06;31.80;1.00
15364;DHT22;7781;49.690;6.472;2023-06-14T16:11:35;31.50;1.00
15364;DHT22;7781;49.690;6.472;2023-06-14T16:14:03;31.30;1.00